createdAt,value
2022-07-29T00:01:19.388Z,26.13
2022-07-29T00:03:48.090Z,26.43
2022-07-29T00:06:16.525Z,26.43
2022-07-29T00:08:44.773Z,26.03
2022-07-29T00:11:14.374Z,26.33
2022-07-29T00:13:44.447Z,27.73
2022-07-29T00:16:16.052Z,26.13
2022-07-29T00:18:44.327Z,24.90
2022-07-29T00:21:12.567Z,27.50
2022-07-29T00:23:40.771Z,27.30
2022-07-29T00:26:09.095Z,25.43
2022-07-29T00:28:38.692Z,25.77
2022-07-29T00:31:06.906Z,25.77
2022-07-29T00:33:35.272Z,25.70
2022-07-29T00:36:02.490Z,26.17
2022-07-29T00:38:30.691Z,26.23
2022-07-29T00:40:58.909Z,28.00
2022-07-29T00:43:28.111Z,27.43
2022-07-29T00:45:57.714Z,28.00
2022-07-29T00:48:25.978Z,43.37
2022-07-29T00:50:55.407Z,29.43
2022-07-29T00:53:24.031Z,42.10
2022-07-29T00:55:52.448Z,41.53
2022-07-29T00:58:20.748Z,32.97
2022-07-29T01:00:49.137Z,31.87
2022-07-29T01:03:18.874Z,31.07
2022-07-29T01:05:51.271Z,41.87
2022-07-29T01:08:20.557Z,32.30
2022-07-29T01:10:48.883Z,31.93
2022-07-29T01:13:17.496Z,41.27
2022-07-29T01:15:48.875Z,41.43
2022-07-29T01:18:22.119Z,43.37
2022-07-29T01:21:01.685Z,42.30
2022-07-29T01:23:42.930Z,42.07
2022-07-29T01:26:28.642Z,32.80
2022-07-29T01:29:07.644Z,42.03
2022-07-29T01:31:41.777Z,42.67
2022-07-29T01:34:30.156Z,42.90
2022-07-29T01:37:04.943Z,42.87
2022-07-29T01:39:34.275Z,42.27
2022-07-29T01:42:08.871Z,43.63
2022-07-29T01:44:40.723Z,43.33
2022-07-29T01:47:13.749Z,43.67
2022-07-29T01:49:43.882Z,42.57
2022-07-29T01:52:15.971Z,43.57
2022-07-29T01:54:50.595Z,43.47
2022-07-29T01:57:19.663Z,44.03
2022-07-29T01:59:50.221Z,45.57
2022-07-29T02:02:19.303Z,42.80
2022-07-29T02:04:49.410Z,42.47
2022-07-29T02:07:19.684Z,43.17
2022-07-29T02:09:48.611Z,45.33
2022-07-29T02:12:17.478Z,44.27
2022-07-29T02:14:47.512Z,44.47
2022-07-29T02:17:18.467Z,44.90
2022-07-29T02:19:47.453Z,44.30
2022-07-29T02:22:16.289Z,44.77
2022-07-29T02:24:44.702Z,47.07
2022-07-29T02:27:13.738Z,45.40
2022-07-29T02:29:42.442Z,45.53
2022-07-29T02:32:12.986Z,45.33
2022-07-29T02:34:44.186Z,46.17
2022-07-29T02:37:12.761Z,45.47
2022-07-29T02:39:41.913Z,46.67
2022-07-29T02:42:10.856Z,45.43
2022-07-29T02:44:39.369Z,49.57
2022-07-29T02:47:13.314Z,47.07
2022-07-29T02:49:43.979Z,44.30
2022-07-29T02:52:15.272Z,46.63
2022-07-29T02:54:48.655Z,45.00
2022-07-29T02:57:21.361Z,49.07
2022-07-29T02:59:50.749Z,48.50
2022-07-29T03:02:19.484Z,46.37
2022-07-29T03:04:50.096Z,45.63
2022-07-29T03:07:20.863Z,47.23
2022-07-29T03:09:49.510Z,46.93
2022-07-29T03:12:18.032Z,47.17
2022-07-29T03:14:47.131Z,47.00
2022-07-29T03:17:15.943Z,48.33
2022-07-29T03:19:44.656Z,46.57
2022-07-29T03:22:14.686Z,49.20
2022-07-29T03:24:42.916Z,47.17
2022-07-29T03:27:11.145Z,48.20
2022-07-29T03:29:39.381Z,48.13
2022-07-29T03:32:09.017Z,46.23
2022-07-29T03:34:37.775Z,47.07
2022-07-29T03:37:06.826Z,48.03
2022-07-29T03:39:39.349Z,46.60
2022-07-29T03:42:08.479Z,48.03
2022-07-29T03:44:37.344Z,47.50
2022-07-29T03:47:07.367Z,49.37
2022-07-29T03:49:37.649Z,46.60
2022-07-29T03:52:06.335Z,47.60
2022-07-29T03:54:34.737Z,47.03
2022-07-29T03:57:08.159Z,46.30
2022-07-29T03:59:36.801Z,47.80
2022-07-29T04:02:06.309Z,45.43
2022-07-29T04:04:35.447Z,47.27
2022-07-29T04:07:03.770Z,48.47
2022-07-29T04:09:32.037Z,45.13
2022-07-29T04:12:03.291Z,49.73
2022-07-29T04:14:33.884Z,44.07
2022-07-29T04:17:02.207Z,48.47
2022-07-29T04:19:30.505Z,45.00
2022-07-29T04:21:58.841Z,48.43
2022-07-29T04:24:27.080Z,49.73
2022-07-29T04:26:55.310Z,47.60
2022-07-29T04:29:23.554Z,45.27
2022-07-29T04:31:53.180Z,47.90
2022-07-29T04:34:21.475Z,46.47
2022-07-29T04:36:49.780Z,46.17
2022-07-29T04:39:22.727Z,46.80
2022-07-29T04:41:52.577Z,52.03
2022-07-29T04:44:28.433Z,49.23
2022-07-29T04:46:59.110Z,50.33
2022-07-29T04:49:27.533Z,48.60
2022-07-29T04:51:55.981Z,46.87
2022-07-29T04:54:24.224Z,50.27
2022-07-29T04:56:53.759Z,49.73
2022-07-29T04:59:22.030Z,47.10
2022-07-29T05:01:50.331Z,46.83
2022-07-29T05:04:20.581Z,47.60
2022-07-29T05:06:49.348Z,47.33
2022-07-29T05:09:17.689Z,45.30
2022-07-29T05:11:45.989Z,47.90
2022-07-29T05:14:14.718Z,48.70
2022-07-29T05:16:44.284Z,47.37
2022-07-29T05:19:14.696Z,46.60
2022-07-29T05:21:44.617Z,48.53
2022-07-29T05:24:13.516Z,47.07
2022-07-29T05:26:42.230Z,46.00
2022-07-29T05:29:44.843Z,46.63
2022-07-29T05:31:59.390Z,49.53
2022-07-29T05:34:28.797Z,47.30
2022-07-29T05:36:58.395Z,50.73
2022-07-29T05:39:48.683Z,48.17
2022-07-29T05:42:15.017Z,48.00
2022-07-29T05:44:43.296Z,51.60
2022-07-29T05:47:12.480Z,49.30
2022-07-29T05:49:40.766Z,49.97
2022-07-29T05:52:11.155Z,48.20
2022-07-29T05:54:39.416Z,52.40
2022-07-29T05:57:07.773Z,49.40
2022-07-29T05:59:38.009Z,47.07
2022-07-29T06:02:06.401Z,51.77
2022-07-29T06:04:34.918Z,49.77
2022-07-29T06:07:03.517Z,50.30
2022-07-29T06:09:36.006Z,48.73
2022-07-29T06:12:04.809Z,51.37
2022-07-29T06:14:33.589Z,48.63
2022-07-29T06:17:01.891Z,49.17
2022-07-29T06:19:30.099Z,48.43
2022-07-29T06:21:58.397Z,55.70
2022-07-29T06:24:30.584Z,47.50
2022-07-29T06:27:07.017Z,47.00
2022-07-29T06:29:35.308Z,47.67
2022-07-29T06:35:38.826Z,46.43
2022-07-29T06:38:30.122Z,47.17
2022-07-29T06:41:06.238Z,49.67
2022-07-29T06:44:16.001Z,47.77
2022-07-29T06:47:05.316Z,51.67
2022-07-29T06:50:13.467Z,52.03
2022-07-29T06:52:44.662Z,47.17
2022-07-29T06:55:24.939Z,52.97
2022-07-29T06:57:53.896Z,49.87
2022-07-29T07:00:22.704Z,51.30
2022-07-29T07:02:57.454Z,50.83
2022-07-29T07:05:27.878Z,50.53
2022-07-29T07:07:57.621Z,54.90
2022-07-29T07:10:25.870Z,55.70
2022-07-29T07:12:54.148Z,55.53
2022-07-29T07:15:22.905Z,49.67
2022-07-29T07:18:08.881Z,54.13
2022-07-29T07:20:37.513Z,51.27
2022-07-29T07:23:06.505Z,53.80
2022-07-29T07:25:34.826Z,52.20
2022-07-29T07:28:03.375Z,54.43
2022-07-29T07:30:31.866Z,52.00
2022-07-29T07:33:00.159Z,60.27
2022-07-29T07:35:29.906Z,52.80
2022-07-29T07:37:58.118Z,55.77
2022-07-29T07:40:27.005Z,52.90
2022-07-29T07:42:55.186Z,53.40
2022-07-29T07:45:23.647Z,52.60
2022-07-29T07:47:52.050Z,53.70
2022-07-29T07:50:20.758Z,54.67
2022-07-29T07:52:51.304Z,55.37
2022-07-29T07:55:19.846Z,54.50
2022-07-29T07:57:48.556Z,55.30
2022-07-29T08:00:17.684Z,58.20
2022-07-29T08:02:46.353Z,54.60
2022-07-29T08:05:17.797Z,54.00
2022-07-29T08:07:47.442Z,51.93
2022-07-29T08:10:37.515Z,61.37
2022-07-29T08:13:06.141Z,60.47
2022-07-29T08:15:34.797Z,52.70
2022-07-29T08:18:08.518Z,55.03
2022-07-29T08:20:37.406Z,53.77
2022-07-29T08:23:13.715Z,51.50
2022-07-29T08:26:01.646Z,52.20
2022-07-29T08:28:30.117Z,52.17
2022-07-29T08:31:17.261Z,51.73
2022-07-29T08:33:46.376Z,54.27
2022-07-29T08:36:17.172Z,52.50
2022-07-29T08:38:45.835Z,52.67
2022-07-29T08:41:15.969Z,58.10
2022-07-29T08:43:58.881Z,53.00
2022-07-29T08:46:28.550Z,61.80
2022-07-29T08:49:05.037Z,52.83
2022-07-29T08:51:34.870Z,53.70
2022-07-29T08:54:24.654Z,63.47
2022-07-29T08:56:55.122Z,60.00
2022-07-29T08:59:42.458Z,53.73
2022-07-29T09:02:14.424Z,61.47
2022-07-29T09:04:42.865Z,53.50
2022-07-29T09:07:14.312Z,52.93
2022-07-29T09:09:43.768Z,54.20
2022-07-29T09:12:13.775Z,66.50
2022-07-29T09:15:34.299Z,54.20
2022-07-29T09:18:20.350Z,53.23
2022-07-29T09:21:16.245Z,53.63
2022-07-29T09:24:02.463Z,57.57
2022-07-29T09:26:31.829Z,54.80
2022-07-29T09:29:01.800Z,56.40
2022-07-29T09:31:35.579Z,55.07
2022-07-29T09:34:06.142Z,54.07
2022-07-29T09:36:41.329Z,54.43
2022-07-29T09:39:09.862Z,54.33
2022-07-29T09:41:48.159Z,60.37
2022-07-29T09:44:19.375Z,56.03
2022-07-29T09:46:56.395Z,56.90
2022-07-29T09:49:24.973Z,56.13
2022-07-29T09:52:03.966Z,54.27
2022-07-29T09:54:37.550Z,54.73
2022-07-29T09:57:07.442Z,56.00
2022-07-29T09:59:37.078Z,56.77
2022-07-29T10:02:23.652Z,54.57
2022-07-29T10:04:52.237Z,56.23
2022-07-29T10:07:20.515Z,58.07
2022-07-29T10:09:52.655Z,56.10
2022-07-29T10:12:21.037Z,56.33
2022-07-29T10:14:51.109Z,55.53
2022-07-29T10:17:20.206Z,59.20
2022-07-29T10:19:48.782Z,58.73
2022-07-29T10:22:36.827Z,56.47
2022-07-29T10:25:05.621Z,55.67
2022-07-29T10:27:34.318Z,56.47
2022-07-29T10:30:05.451Z,56.17
2022-07-29T10:32:41.775Z,57.80
2022-07-29T10:35:18.067Z,58.80
2022-07-29T10:37:55.034Z,55.47
2022-07-29T10:40:44.555Z,58.67
2022-07-29T10:43:25.527Z,57.30
2022-07-29T10:46:02.727Z,56.47
2022-07-29T10:48:31.160Z,56.83
2022-07-29T10:51:00.936Z,57.07
2022-07-29T10:53:44.362Z,56.67
2022-07-29T10:56:28.460Z,57.60
2022-07-29T10:59:15.390Z,56.47
2022-07-29T11:02:02.468Z,56.07
2022-07-29T11:04:48.627Z,59.80
2022-07-29T11:07:18.680Z,55.80
2022-07-29T11:09:47.369Z,58.53
2022-07-29T11:12:33.189Z,55.87
2022-07-29T11:15:03.677Z,59.47
2022-07-29T11:17:53.722Z,56.80
2022-07-29T11:20:36.519Z,57.30
2022-07-29T11:23:20.468Z,55.57
2022-07-29T11:26:18.520Z,56.87
2022-07-29T11:28:53.163Z,57.60
2022-07-29T11:31:45.235Z,59.30
2022-07-29T11:34:34.890Z,55.40
2022-07-29T11:37:27.936Z,58.40
2022-07-29T11:40:15.540Z,55.77
2022-07-29T11:42:51.954Z,57.77
2022-07-29T11:45:43.524Z,57.20
2022-07-29T11:51:12.105Z,57.00
2022-07-29T11:53:43.282Z,56.97
2022-07-29T11:56:17.114Z,57.13
2022-07-29T11:58:45.516Z,59.10
2022-07-29T12:01:16.196Z,58.77
2022-07-29T12:03:44.987Z,58.90
2022-07-29T12:06:17.365Z,58.27
2022-07-29T12:08:48.182Z,57.77
2022-07-29T12:11:21.622Z,57.37
2022-07-29T12:13:50.709Z,59.67
2022-07-29T12:16:29.187Z,56.57
2022-07-29T12:19:02.563Z,56.63
2022-07-29T12:21:32.155Z,59.23
2022-07-29T12:24:09.316Z,58.00
2022-07-29T12:26:38.289Z,58.70
2022-07-29T12:29:11.280Z,59.83
2022-07-29T12:31:45.564Z,62.83
2022-07-29T12:34:14.411Z,63.33
2022-07-29T12:36:43.634Z,56.67
2022-07-29T12:39:13.882Z,57.10
2022-07-29T12:41:42.304Z,64.13
2022-07-29T12:44:10.710Z,56.43
2022-07-29T12:46:39.587Z,56.53
2022-07-29T12:49:08.262Z,58.77
2022-07-29T12:51:38.428Z,60.60
2022-07-29T12:54:09.111Z,58.67
2022-07-29T12:56:43.671Z,59.17
2022-07-29T12:59:16.632Z,59.17
2022-07-29T13:01:45.360Z,58.60
2022-07-29T13:04:13.709Z,60.57
2022-07-29T13:06:46.079Z,59.37
2022-07-29T13:09:19.658Z,61.23
2022-07-29T13:11:50.601Z,60.37
2022-07-29T13:14:32.552Z,64.13
2022-07-29T13:17:04.964Z,59.57
2022-07-29T13:19:37.890Z,61.80
2022-07-29T13:22:06.562Z,63.27
2022-07-29T13:24:35.017Z,57.67
2022-07-29T13:27:05.652Z,62.87
2022-07-29T13:29:34.440Z,60.67
2022-07-29T13:32:03.030Z,61.97
2022-07-29T13:34:32.072Z,61.87
2022-07-29T13:37:00.406Z,60.33
2022-07-29T13:39:28.791Z,66.23
2022-07-29T13:41:57.605Z,62.50
2022-07-29T13:44:27.593Z,61.03
2022-07-29T13:46:56.029Z,61.13
2022-07-29T13:49:24.535Z,65.50
2022-07-29T13:51:52.932Z,60.53
2022-07-29T13:54:21.368Z,62.70
2022-07-29T13:56:49.749Z,64.07
2022-07-29T13:59:18.153Z,61.63
2022-07-29T14:01:47.873Z,62.53
2022-07-29T14:04:16.388Z,61.47
2022-07-29T14:06:44.791Z,63.40
2022-07-29T14:09:13.057Z,61.63
2022-07-29T14:11:41.423Z,58.43
2022-07-29T14:14:11.145Z,60.33
2022-07-29T14:16:43.799Z,57.90
2022-07-29T14:19:18.730Z,59.43
2022-07-29T14:21:47.665Z,55.83
2022-07-29T14:24:17.822Z,54.27
2022-07-29T14:26:50.203Z,52.57
2022-07-29T14:29:18.544Z,56.57
2022-07-29T14:31:46.996Z,51.63
2022-07-29T14:34:16.411Z,52.23
2022-07-29T14:36:46.066Z,51.70
2022-07-29T14:39:15.360Z,50.20
2022-07-29T14:41:43.714Z,50.20
2022-07-29T14:44:11.958Z,52.30
2022-07-29T14:46:40.381Z,52.13
2022-07-29T14:49:09.691Z,48.97
2022-07-29T14:51:38.300Z,48.60
2022-07-29T14:54:10.135Z,49.57
2022-07-29T14:56:46.297Z,53.37
2022-07-29T14:59:15.583Z,52.13
2022-07-29T15:01:44.504Z,49.63
2022-07-29T15:04:12.807Z,51.73
2022-07-29T15:06:41.087Z,49.70
2022-07-29T15:09:10.778Z,53.40
2022-07-29T15:11:39.818Z,53.37
2022-07-29T15:14:08.374Z,55.77
2022-07-29T15:16:38.143Z,55.23
2022-07-29T15:19:06.777Z,54.13
2022-07-29T15:21:35.140Z,55.77
2022-07-29T15:24:11.809Z,56.03
2022-07-29T15:26:40.466Z,56.73
2022-07-29T15:29:08.935Z,54.00
2022-07-29T15:31:37.433Z,56.73
2022-07-29T15:34:06.525Z,56.63
2022-07-29T15:36:51.631Z,60.97
2022-07-29T15:39:23.938Z,54.70
2022-07-29T15:41:52.781Z,59.43
2022-07-29T15:44:21.364Z,65.20
2022-07-29T15:47:06.126Z,55.97
2022-07-29T15:49:47.860Z,57.73
2022-07-29T15:52:17.784Z,62.07
2022-07-29T15:54:47.559Z,54.63
2022-07-29T15:57:15.908Z,57.50
2022-07-29T15:59:45.525Z,54.57
2022-07-29T16:02:14.115Z,63.23
2022-07-29T16:04:42.609Z,59.33
2022-07-29T16:07:10.973Z,57.20
2022-07-29T16:09:39.290Z,57.43
2022-07-29T16:12:15.484Z,57.50
2022-07-29T16:14:44.583Z,57.07
2022-07-29T16:17:14.754Z,57.47
2022-07-29T16:19:49.212Z,58.97
2022-07-29T16:22:29.695Z,55.57
2022-07-29T16:24:58.073Z,58.37
2022-07-29T16:27:38.302Z,66.87
2022-07-29T16:30:10.772Z,63.73
2022-07-29T16:32:40.287Z,59.17
2022-07-29T16:35:15.057Z,56.20
2022-07-29T16:37:46.947Z,56.47
2022-07-29T16:40:21.609Z,57.20
2022-07-29T16:43:04.409Z,57.50
2022-07-29T16:45:47.633Z,55.67
2022-07-29T16:48:22.866Z,56.13
2022-07-29T16:50:52.706Z,58.43
2022-07-29T16:53:31.370Z,57.40
2022-07-29T16:56:02.209Z,58.83
2022-07-29T16:58:32.188Z,60.80
2022-07-29T17:01:01.066Z,56.70
2022-07-29T17:03:29.723Z,55.53
2022-07-29T17:05:58.034Z,55.63
2022-07-29T17:08:26.559Z,58.10
2022-07-29T17:10:54.863Z,57.17
2022-07-29T17:13:23.194Z,58.73
2022-07-29T17:15:55.497Z,58.50
2022-07-29T17:18:27.130Z,59.47
2022-07-29T17:20:55.443Z,56.47
2022-07-29T17:23:23.754Z,58.43
2022-07-29T17:25:52.140Z,57.03
2022-07-29T17:28:20.446Z,57.97
2022-07-29T17:30:48.936Z,55.23
2022-07-29T17:33:18.723Z,59.17
2022-07-29T17:36:04.883Z,56.57
2022-07-29T17:38:33.268Z,53.07
2022-07-29T17:41:01.589Z,54.83
2022-07-29T17:43:36.208Z,59.07
2022-07-29T17:46:09.011Z,54.27
2022-07-29T17:48:39.140Z,53.57
2022-07-29T17:51:08.958Z,55.80
2022-07-29T17:53:37.316Z,56.97
2022-07-29T17:56:06.577Z,52.73
2022-07-29T17:58:35.126Z,56.93
2022-07-29T18:01:03.698Z,55.97
2022-07-29T18:03:44.782Z,75.70
2022-07-29T18:06:16.974Z,55.40
2022-07-29T18:08:47.718Z,61.40
2022-07-29T18:11:16.415Z,52.97
2022-07-29T18:13:44.752Z,53.20
2022-07-29T18:16:13.141Z,56.77
2022-07-29T18:18:41.758Z,55.57
2022-07-29T18:21:10.060Z,53.67
2022-07-29T18:23:40.258Z,54.40
2022-07-29T18:26:08.760Z,56.33
2022-07-29T18:28:37.088Z,54.17
2022-07-29T18:31:05.517Z,54.50
2022-07-29T18:33:33.883Z,54.60
2022-07-29T18:36:04.196Z,55.53
2022-07-29T18:38:40.693Z,55.53
2022-07-29T18:41:09.035Z,55.37
2022-07-29T18:43:37.501Z,54.00
2022-07-29T18:46:06.665Z,56.90
2022-07-29T18:48:35.537Z,53.90
2022-07-29T18:51:09.111Z,53.83
2022-07-29T18:53:38.007Z,53.03
2022-07-29T18:56:07.772Z,57.13
2022-07-29T18:58:38.175Z,54.00
2022-07-29T19:01:06.479Z,54.17
2022-07-29T19:03:34.802Z,54.07
2022-07-29T19:06:03.084Z,57.73
2022-07-29T19:08:32.569Z,53.63
2022-07-29T19:11:00.787Z,55.27
2022-07-29T19:13:30.930Z,54.67
2022-07-29T19:15:59.232Z,59.40
2022-07-29T19:18:27.531Z,52.90
2022-07-29T19:20:55.866Z,54.93
2022-07-29T19:23:24.306Z,58.77
2022-07-29T19:25:53.706Z,54.57
2022-07-29T19:28:22.819Z,53.77
2022-07-29T19:30:52.862Z,56.00
2022-07-29T19:33:21.423Z,58.33
2022-07-29T19:35:54.429Z,55.17
2022-07-29T19:38:23.706Z,62.30
2022-07-29T19:41:01.114Z,53.70
2022-07-29T19:43:50.480Z,52.07
2022-07-29T19:46:20.591Z,51.10
2022-07-29T19:49:07.796Z,52.67
2022-07-29T19:51:50.319Z,52.10
2022-07-29T19:54:37.607Z,106.67
2022-07-29T19:57:58.496Z,105.27
2022-07-29T20:40:33.081Z,51.53
2022-07-29T21:00:28.831Z,61.97
2022-07-29T21:07:22.068Z,64.43
2022-07-29T21:13:15.121Z,54.23
2022-07-29T21:15:46.158Z,61.30
2022-07-29T21:18:27.046Z,55.03
2022-07-29T21:20:55.312Z,57.00
2022-07-29T21:23:23.755Z,55.63
2022-07-29T21:25:52.250Z,54.00
2022-07-29T21:28:27.048Z,58.37
2022-07-29T21:30:55.710Z,61.13
2022-07-29T21:33:24.500Z,54.93
2022-07-29T21:36:16.012Z,53.77
2022-07-29T21:38:41.426Z,53.90
2022-07-29T21:41:10.805Z,55.53
2022-07-29T21:43:42.206Z,54.07
2022-07-29T21:46:10.663Z,61.17
2022-07-29T21:48:43.861Z,53.83
2022-07-29T21:51:12.717Z,54.43
2022-07-29T21:53:40.981Z,53.53
2022-07-29T21:56:10.332Z,55.80
2022-07-29T21:58:44.467Z,54.87
2022-07-29T22:01:12.849Z,56.67
2022-07-29T22:03:41.140Z,53.57
2022-07-29T22:06:11.283Z,64.90
2022-07-29T22:08:47.792Z,63.70
2022-07-29T22:11:16.043Z,57.07
2022-07-29T22:13:45.803Z,55.60
2022-07-29T22:16:16.450Z,58.53
2022-07-29T22:18:46.876Z,60.50
2022-07-29T22:21:15.303Z,54.63
2022-07-29T22:23:43.593Z,55.93
2022-07-29T22:26:14.288Z,54.40
2022-07-29T22:28:42.737Z,56.53
2022-07-29T22:31:12.686Z,54.93
2022-07-29T22:33:41.032Z,53.90
2022-07-29T22:36:12.620Z,57.60
2022-07-29T22:38:41.022Z,64.57
2022-07-29T22:41:09.531Z,53.13
2022-07-29T22:43:43.019Z,55.87
2022-07-29T22:46:14.194Z,54.00
2022-07-29T22:48:42.812Z,55.17
2022-07-29T22:51:11.284Z,55.20
2022-07-29T22:53:39.835Z,54.27
2022-07-29T22:56:08.437Z,55.83
2022-07-29T22:58:36.779Z,58.50
2022-07-29T23:01:05.176Z,55.57
2022-07-29T23:03:35.117Z,54.53
2022-07-29T23:06:05.483Z,58.50
2022-07-29T23:08:36.906Z,57.07
2022-07-29T23:11:05.647Z,53.97
2022-07-29T23:13:33.991Z,55.00
2022-07-29T23:16:02.707Z,53.40
2022-07-29T23:18:35.199Z,58.03
2022-07-29T23:21:03.706Z,56.13
2022-07-29T23:23:34.823Z,54.90
2022-07-29T23:26:03.154Z,53.03
2022-07-29T23:28:31.447Z,54.00
2022-07-29T23:30:59.830Z,55.37
2022-07-29T23:33:34.351Z,57.27
2022-07-29T23:36:04.189Z,56.47
2022-07-29T23:38:32.625Z,60.97
2022-07-29T23:41:10.165Z,55.93
2022-07-29T23:43:38.799Z,57.67
2022-07-29T23:46:07.519Z,58.77
2022-07-29T23:48:36.833Z,58.37
2022-07-29T23:51:07.790Z,58.20
2022-07-29T23:53:53.840Z,59.30
2022-07-29T23:56:25.445Z,61.80
2022-07-29T23:59:05.805Z,54.13
